Bei Facebook empfehlenBei Twitter postenGoogle plusPinterest

Das Wetter im Erzgebirge am 20.05.2015

Wetter und Klima am 20.05.2015 Holzhau im Erzgebirge (630m ü.NN)
Letzte gemessene Temperatur und Uhrzeit der Messung23:45:00 Uhr5.60 °C
Temperatur (Maximum / Höchstwert) und Uhrzeit der Messung11:15:00 Uhr13.80 °C
Temperatur (Minimum / Tiefstwert) und Uhrzeit der Messung23:45:005.60 °C
Errechneter Absolutwert der Temperaturschwankungen zwischen Tmin und Tmax des Tages8.20 K
Errechnete Tagesmitteltemperatur9.62188 °C
Gesamt - Niederschlag des Tages (in flüssiger Form)0.52 Liter / m²
Luftdruck (Maximum / Höchstwert) und Zeitpunkt der Messung23:45:00 Uhr1015.40 hPa
Luftdruck (Minimum / Tiefstwert) und Zeitpunkt der Messung04:30:00 Uhr1009.00 hPa
Errechneter Absolutwert der Luftdruckschwankungen des Tages6.40 hPa
Höchste gemessene Windgeschwindigkeit und Uhrzeit der Messung12:00:00 Uhr3.96 km/h
Errechnete Windhäufigkeit in Relation zu den Messwerten des Tages1.04167 %
Niedrigste Windkühle (Windchill) und Zeitpunkt der Messung23:45:00 Uhr5.60 °C
Taupunkt (Maximum / Höchstwert) und Uhrzeit der Messung08:15:00 Uhr7.00 °C
Taupunkt (Minimum / Tiefstwert) und Uhrzeit der Messung22:00:002.60 °C
Anzahl der automatisch eingelesenen Messwerte 96

Detaillierte Wetter- und Klima- Messwerte für den 20.05.2015 in Holzhau im Erzgebirge (630m ü.NN)
ZeitTemperaturLuftdruckRel. LuftfeuchteWindWindrichtungWindchillTaupunktNiederschlag l/m²
23:45:005.60 °C1015.40 hPa84.00 %3.10 °C0.52
23:30:005.90 °C1015.00 hPa84.00 %3.40 °C0.52
23:15:006.10 °C1015.10 hPa84.00 %3.60 °C0.52
23:00:006.10 °C1014.70 hPa84.00 %3.60 °C0.52
22:45:005.90 °C1014.70 hPa84.00 %3.40 °C0.52
22:30:005.80 °C1014.50 hPa83.00 %3.10 °C0.52
22:15:005.60 °C1014.40 hPa82.00 %2.80 °C0.52
22:00:005.60 °C1014.30 hPa81.00 %2.60 °C0.52
21:45:006.10 °C1014.20 hPa79.00 %2.70 °C0.52
21:30:006.90 °C1014.20 hPa79.00 %3.50 °C0.52
21:15:007.50 °C1014.10 hPa77.00 %3.70 °C0.52
21:00:008.10 °C1013.80 hPa76.00 %4.10 °C0.52
20:45:008.50 °C1013.70 hPa75.00 %4.30 °C0.52
20:30:009.10 °C1013.70 hPa73.00 %4.50 °C0.52
20:15:009.60 °C1013.40 hPa72.00 %4.80 °C0.52
20:00:009.90 °C1013.50 hPa70.00 %4.70 °C0.52
19:45:0010.30 °C1013.20 hPa69.00 %4.90 °C0.52
19:30:0010.70 °C1013.10 hPa66.00 %4.60 °C0.52
19:15:0011.00 °C1012.90 hPa64.00 %4.50 °C0.52
19:00:0011.00 °C1012.80 hPa64.00 %4.50 °C0.52
18:45:0011.00 °C1012.70 hPa61.00 %3.80 °C0.52
18:30:0011.00 °C1012.50 hPa60.00 %3.50 °C0.52
18:15:0011.30 °C1012.30 hPa58.00 %3.30 °C0.52
18:00:0011.60 °C1012.40 hPa59.00 %3.90 °C0.52
17:45:0011.80 °C1012.20 hPa58.00 %3.80 °C0.52
17:30:0012.10 °C1012.20 hPa59.00 %4.30 °C0.52
17:15:0012.40 °C1012.10 hPa59.00 %4.60 °C0.52
17:00:0012.50 °C1012.20 hPa59.00 %4.70 °C0.52
16:45:0012.60 °C1011.90 hPa59.00 %4.80 °C0.52
16:30:0013.20 °C1012.00 hPa61.00 %5.90 °C0.52
16:15:0013.10 °C1011.90 hPa61.00 %5.80 °C0.52
16:00:0012.60 °C1012.00 hPa64.00 %6.00 °C0.52
15:45:0012.00 °C1012.00 hPa65.00 %5.60 °C0.52
15:30:0011.90 °C1012.00 hPa64.00 %5.30 °C0.52
15:15:0012.40 °C1012.00 hPa61.00 %5.10 °C0.52
15:00:0013.20 °C1012.00 hPa60.00 %5.60 °C0.52
14:45:0012.80 °C1011.80 hPa63.00 %5.90 °C0.52
14:30:0012.30 °C1011.60 hPa65.00 %5.90 °C0.52
14:15:0012.20 °C1011.50 hPa65.00 %5.80 °C0.52
14:00:0012.30 °C1011.60 hPa63.00 %5.50 °C0.52
13:45:0012.20 °C1011.60 hPa62.00 %5.10 °C 
13:30:0011.90 °C1011.50 hPa63.00 %5.10 °C 
13:15:0011.90 °C1011.40 hPa62.00 %4.90 °C 
13:00:0012.20 °C1011.30 hPa62.00 %5.10 °C 
12:45:0011.60 °C1011.00 hPa64.00 %5.00 °C 
12:30:0011.30 °C1011.00 hPa63.00 %4.50 °C 
12:15:0011.50 °C1010.90 hPa62.00 %4.50 °C 
12:00:0012.30 °C1011.10 hPa58.00 %3.96 km/hWNW12.30 °C4.30 °C 
11:45:0013.30 °C1010.70 hPa56.00 %4.70 °C 
11:30:0013.40 °C1010.50 hPa56.00 %4.80 °C 
11:15:0013.80 °C1010.30 hPa56.00 %5.20 °C 
11:00:0013.70 °C1010.30 hPa58.00 %5.60 °C 
10:45:0013.60 °C1010.30 hPa58.00 %5.50 °C 
10:30:0013.10 °C1010.30 hPa61.00 %5.80 °C 
10:15:0012.10 °C1010.30 hPa64.00 %5.50 °C 
10:00:0012.10 °C1010.30 hPa64.00 %5.50 °C 
09:45:0012.20 °C1010.20 hPa65.00 %5.80 °C 
09:30:0011.90 °C1010.30 hPa68.00 %6.20 °C 
09:15:0011.60 °C1010.30 hPa68.00 %5.90 °C 
09:00:0011.20 °C1010.20 hPa72.00 %6.30 °C 
08:45:0010.40 °C1010.40 hPa74.00 %6.00 °C 
08:30:0010.50 °C1010.20 hPa74.00 %6.10 °C 
08:15:0010.50 °C1010.00 hPa79.00 %7.00 °C 
08:00:009.80 °C1009.90 hPa81.00 %6.70 °C 
07:45:009.20 °C1009.90 hPa83.00 %6.50 °C 
07:30:008.40 °C1009.80 hPa83.00 %5.70 °C 
07:15:007.80 °C1009.80 hPa84.00 %5.30 °C 
07:00:007.30 °C1009.70 hPa85.00 %5.00 °C 
06:45:007.00 °C1009.80 hPa85.00 %4.70 °C 
06:30:006.80 °C1009.70 hPa85.00 %4.50 °C 
06:15:006.50 °C1009.70 hPa85.00 %4.20 °C 
06:00:006.40 °C1009.60 hPa85.00 %4.10 °C 
05:45:006.20 °C1009.50 hPa85.00 %3.90 °C 
05:30:006.20 °C1009.70 hPa84.00 %3.70 °C 
05:15:006.30 °C1009.40 hPa84.00 %3.80 °C 
05:00:006.20 °C1009.30 hPa84.00 %3.70 °C 
04:45:006.30 °C1009.10 hPa84.00 %3.80 °C 
04:30:006.50 °C1009.00 hPa83.00 %3.80 °C 
04:15:006.90 °C1009.00 hPa83.00 %4.20 °C 
04:00:007.10 °C1009.10 hPa82.00 %4.20 °C 
03:45:007.20 °C1009.10 hPa82.00 %4.30 °C 
03:30:007.30 °C1009.30 hPa82.00 %4.40 °C 
03:15:007.30 °C1009.30 hPa82.00 %4.40 °C 
03:00:007.40 °C1009.20 hPa82.00 %4.50 °C 
02:45:007.50 °C1009.40 hPa82.00 %4.60 °C 
02:30:007.60 °C1009.50 hPa81.00 %4.60 °C 
02:15:007.80 °C1009.50 hPa81.00 %4.70 °C 
02:00:007.90 °C1009.70 hPa81.00 %4.80 °C 
01:45:007.90 °C1009.30 hPa81.00 %4.80 °C 
01:30:008.10 °C1009.60 hPa80.00 %4.90 °C 
01:15:008.10 °C1009.70 hPa80.00 %4.90 °C 
01:00:008.00 °C1009.70 hPa79.00 %4.60 °C 
00:45:008.00 °C1009.50 hPa79.00 %4.60 °C 
00:30:008.10 °C1009.80 hPa78.00 %4.50 °C 
00:15:008.30 °C1009.70 hPa79.00 %4.90 °C 
00:00:008.40 °C1009.50 hPa78.00 %4.80 °C 

Permanenter Link zu dieser Seite: Wetter im Erzgebirge am 20.05.2015
Performance-Info: Die Erstellung der Seite / Statistik(en) / Tabelle(n) erforderte 5 Datenbankserver-Abfrage(n) und dauerte 97 Millisekunden. (Dieser Messwert ist von der Gesamt-Auslastung des Servers abhängig.)
Erzgebirge - Wetter | Erzgebirge - Wetter (Mobilgeräte) | Komplette Klimadatenbank